createdAt,value
2022-10-18T00:01:19.656Z,29.70
2022-10-18T00:04:00.540Z,29.70
2022-10-18T00:06:41.144Z,29.20
2022-10-18T00:09:50.537Z,27.70
2022-10-18T00:12:33.651Z,27.40
2022-10-18T00:15:47.606Z,27.20
2022-10-18T00:18:26.982Z,27.10
2022-10-18T00:21:07.216Z,27.20
2022-10-18T00:23:49.793Z,27.00
2022-10-18T00:26:34.560Z,26.10
2022-10-18T00:31:33.971Z,26.50
2022-10-18T00:34:18.409Z,27.20
2022-10-18T00:36:54.323Z,27.60
2022-10-18T00:39:41.265Z,27.80
2022-10-18T00:42:24.481Z,28.10
2022-10-18T00:45:25.109Z,28.30
2022-10-18T00:48:00.421Z,27.80
2022-10-18T00:50:28.184Z,28.20
2022-10-18T00:52:58.380Z,27.80
2022-10-18T00:55:28.485Z,28.00
2022-10-18T01:00:21.905Z,27.70
2022-10-18T01:02:48.611Z,27.60
2022-10-18T01:08:00.815Z,28.00
2022-10-18T01:11:00.793Z,28.50
2022-10-18T01:13:54.720Z,28.60
2022-10-18T01:16:30.249Z,28.40
2022-10-18T01:19:14.828Z,28.20
2022-10-18T01:21:55.405Z,28.10
2022-10-18T01:29:49.329Z,28.00
2022-10-18T01:32:20.496Z,29.70
2022-10-18T01:34:47.911Z,29.60
2022-10-18T01:37:16.426Z,30.10
2022-10-18T01:39:45.413Z,30.10
2022-10-18T01:42:13.169Z,29.80
2022-10-18T01:44:39.844Z,30.90
2022-10-18T01:47:07.273Z,30.10
2022-10-18T01:49:34.427Z,30.70
2022-10-18T01:52:01.260Z,30.40
2022-10-18T01:54:30.668Z,31.10
2022-10-18T01:57:01.278Z,32.00
2022-10-18T05:46:56.714Z,33.20
2022-10-18T05:49:23.723Z,33.20
2022-10-18T05:51:50.648Z,32.60
2022-10-18T05:54:17.672Z,32.80
2022-10-18T05:56:44.558Z,32.90
2022-10-18T05:59:12.345Z,32.90
2022-10-18T06:01:40.190Z,33.10
2022-10-18T06:04:07.174Z,32.00
2022-10-18T06:06:34.156Z,31.50
2022-10-18T06:09:03.334Z,30.40
2022-10-18T06:11:30.523Z,31.30
2022-10-18T06:14:01.794Z,31.00
2022-10-18T06:16:32.399Z,31.00
2022-10-18T06:19:00.178Z,30.80
2022-10-18T06:21:27.453Z,30.30
2022-10-18T06:23:56.671Z,30.60
2022-10-18T06:26:23.669Z,31.00
2022-10-18T06:28:50.764Z,31.30
2022-10-18T06:31:17.942Z,31.00
2022-10-18T06:38:38.028Z,30.20
2022-10-18T06:44:39.781Z,29.90
2022-10-18T06:47:07.906Z,30.20
2022-10-18T06:49:34.857Z,29.80
2022-10-18T06:52:01.768Z,29.70
2022-10-18T06:54:28.679Z,29.60
2022-10-18T06:56:58.877Z,29.00
2022-10-18T06:59:28.907Z,27.90
2022-10-18T07:01:58.323Z,27.70
2022-10-18T07:04:27.920Z,27.30
2022-10-18T07:06:54.869Z,27.50
2022-10-18T07:09:21.820Z,27.50
2022-10-18T07:11:48.843Z,28.30
2022-10-18T07:14:16.575Z,28.20
2022-10-18T07:16:43.647Z,29.30
2022-10-18T07:19:10.593Z,28.50
2022-10-18T07:21:37.541Z,28.10
2022-10-18T07:24:04.536Z,27.90
2022-10-18T07:29:01.970Z,27.40
2022-10-18T07:31:29.512Z,27.10
2022-10-18T07:33:56.542Z,27.40
2022-10-18T07:36:24.654Z,26.80
2022-10-18T07:38:52.316Z,27.40
2022-10-18T07:41:19.317Z,26.80
2022-10-18T07:43:51.097Z,26.60
2022-10-18T07:46:18.307Z,26.80
2022-10-18T07:48:45.308Z,24.20
2022-10-18T07:53:17.282Z,23.60
2022-10-18T07:55:44.859Z,21.50
2022-10-18T07:58:12.180Z,20.70
2022-10-18T08:00:39.492Z,20.60
2022-10-18T08:03:06.562Z,17.90
2022-10-18T08:05:33.667Z,19.00
2022-10-18T08:08:04.252Z,17.40
2022-10-18T08:10:35.124Z,17.70
2022-10-18T08:13:02.081Z,16.20
2022-10-18T08:15:29.069Z,16.00
2022-10-18T08:17:56.054Z,14.20
2022-10-18T08:20:31.341Z,13.20
2022-10-18T08:23:00.420Z,12.70
2022-10-18T08:25:28.585Z,9.70
2022-10-18T08:27:55.604Z,8.60
2022-10-18T08:30:23.590Z,7.50
2022-10-18T08:32:50.585Z,8.10
2022-10-18T08:35:17.580Z,6.40
2022-10-18T08:37:45.477Z,4.60
2022-10-18T08:40:15.592Z,4.80
2022-10-18T08:42:58.152Z,4.10
2022-10-18T08:45:40.890Z,2.80
2022-10-18T08:48:10.526Z,1.20
2022-10-18T08:50:38.743Z,1.00
2022-10-18T08:53:36.200Z,1.00
2022-10-18T08:56:15.308Z,1.00
2022-10-18T08:58:45.377Z,1.00
2022-10-18T09:01:15.777Z,1.00
2022-10-18T09:04:01.797Z,1.00
2022-10-18T09:06:37.601Z,1.00
2022-10-18T09:09:23.354Z,1.00
2022-10-18T09:12:15.447Z,1.00
2022-10-18T09:15:23.954Z,1.00
2022-10-18T09:18:05.755Z,1.00
2022-10-18T09:20:53.877Z,1.00
2022-10-18T09:23:44.597Z,1.00
2022-10-18T09:26:14.975Z,1.00
2022-10-18T09:28:58.496Z,1.00
2022-10-18T09:31:31.736Z,1.00
2022-10-18T09:34:03.996Z,1.00
2022-10-18T09:36:37.168Z,1.00
2022-10-18T09:39:06.067Z,1.00
2022-10-18T09:41:56.736Z,1.00
2022-10-18T09:44:25.792Z,1.00
2022-10-18T09:47:03.225Z,1.00
2022-10-18T09:49:36.875Z,1.00
2022-10-18T09:52:06.706Z,1.00
2022-10-18T09:54:36.205Z,1.00
2022-10-18T09:57:26.967Z,1.00
2022-10-18T09:59:54.006Z,1.00
2022-10-18T10:02:22.655Z,1.00
2022-10-18T10:04:54.331Z,1.00
2022-10-18T10:07:29.758Z,1.00
2022-10-18T10:10:07.579Z,1.00
2022-10-18T10:12:38.932Z,1.00
2022-10-18T10:15:23.325Z,1.00
2022-10-18T10:18:05.983Z,1.00
2022-10-18T10:20:44.194Z,1.00
2022-10-18T10:23:30.826Z,1.00
2022-10-18T10:25:59.889Z,1.00
2022-10-18T10:28:33.104Z,1.00
2022-10-18T10:31:25.133Z,1.00
2022-10-18T10:34:19.653Z,1.00
2022-10-18T10:36:51.129Z,1.00
2022-10-18T10:39:19.597Z,1.00
2022-10-18T10:41:50.212Z,1.00
2022-10-18T10:44:30.433Z,1.00
2022-10-18T10:46:57.878Z,1.00
2022-10-18T10:49:45.830Z,1.00
2022-10-18T10:52:36.644Z,1.00
2022-10-18T10:55:17.000Z,1.00
2022-10-18T10:57:51.944Z,1.00
2022-10-18T11:00:35.274Z,1.00
2022-10-18T11:03:27.400Z,1.00
2022-10-18T11:05:58.843Z,1.00
2022-10-18T11:08:31.790Z,1.00
2022-10-18T11:11:22.885Z,1.00
2022-10-18T11:14:07.296Z,1.00
2022-10-18T11:17:08.297Z,1.00
2022-10-18T11:20:00.224Z,1.00
2022-10-18T11:22:28.242Z,1.00
2022-10-18T11:24:55.622Z,1.00
2022-10-18T11:27:29.907Z,1.00
2022-10-18T11:30:17.988Z,1.00
2022-10-18T11:33:15.912Z,1.00
2022-10-18T11:36:09.320Z,1.00
2022-10-18T11:38:40.463Z,1.00
2022-10-18T11:41:23.544Z,1.00
2022-10-18T11:44:02.103Z,1.00
2022-10-18T11:46:41.515Z,1.00
2022-10-18T11:49:17.595Z,1.00
2022-10-18T11:52:08.323Z,1.00
2022-10-18T11:54:54.100Z,1.00
2022-10-18T11:57:42.949Z,1.00
2022-10-18T12:00:28.662Z,1.00
2022-10-18T12:03:21.394Z,1.00
2022-10-18T12:05:48.978Z,1.00
2022-10-18T12:08:25.995Z,1.00
2022-10-18T12:11:09.463Z,1.00
2022-10-18T12:13:51.724Z,1.00
2022-10-18T12:16:28.892Z,1.00
2022-10-18T12:19:11.875Z,1.00
2022-10-18T12:21:39.232Z,1.00
2022-10-18T12:24:11.768Z,1.00
2022-10-18T12:26:38.715Z,1.00
2022-10-18T12:29:24.806Z,1.00
2022-10-18T12:31:55.394Z,1.00
2022-10-18T12:34:22.324Z,1.00
2022-10-18T12:37:27.846Z,1.00
2022-10-18T12:40:23.754Z,1.00
2022-10-18T12:42:51.730Z,1.00
2022-10-18T12:45:25.031Z,1.00
2022-10-18T12:47:52.088Z,1.00
2022-10-18T12:50:35.553Z,1.00
2022-10-18T12:53:06.934Z,1.00
2022-10-18T12:55:39.036Z,1.00
2022-10-18T12:58:27.517Z,1.00
2022-10-18T13:01:01.271Z,1.00
2022-10-18T13:03:31.226Z,1.00
2022-10-18T13:06:01.578Z,1.00
2022-10-18T13:08:38.232Z,1.00
2022-10-18T13:11:08.258Z,1.00
2022-10-18T13:13:42.190Z,1.00
2022-10-18T13:16:29.392Z,1.00
2022-10-18T13:19:19.444Z,1.00
2022-10-18T13:22:13.025Z,1.00
2022-10-18T13:24:47.740Z,1.00
2022-10-18T13:27:42.364Z,1.00
2022-10-18T13:30:32.578Z,1.00
2022-10-18T13:33:14.980Z,1.00
2022-10-18T13:35:49.310Z,1.00
2022-10-18T13:38:34.735Z,1.00
2022-10-18T13:41:35.613Z,1.00
2022-10-18T13:44:02.835Z,1.00
2022-10-18T13:46:32.772Z,1.00
2022-10-18T13:49:26.990Z,1.00
2022-10-18T13:52:19.756Z,1.00
2022-10-18T13:54:58.656Z,1.00
2022-10-18T13:57:56.550Z,1.00
2022-10-18T14:00:44.906Z,1.00
2022-10-18T14:03:56.202Z,1.00
2022-10-18T14:06:29.198Z,1.00
2022-10-18T14:09:26.055Z,1.00
2022-10-18T14:12:16.619Z,1.00
2022-10-18T14:14:54.490Z,1.00
2022-10-18T14:18:00.097Z,1.00
2022-10-18T14:20:29.890Z,1.00
2022-10-18T14:23:15.782Z,1.00
2022-10-18T14:25:42.916Z,1.00
2022-10-18T14:28:48.085Z,1.00
2022-10-18T14:31:19.204Z,1.00
2022-10-18T16:31:31.221Z,1.00
2022-10-18T16:33:58.594Z,1.00
2022-10-18T16:36:29.257Z,1.00
2022-10-18T16:39:01.335Z,1.00
2022-10-18T16:41:28.199Z,1.00
2022-10-18T16:43:55.033Z,1.00
2022-10-18T16:46:23.562Z,1.00
2022-10-18T16:48:50.911Z,1.00
2022-10-18T16:51:17.920Z,1.00
2022-10-18T16:53:44.786Z,1.00
2022-10-18T16:56:18.895Z,1.00
2022-10-18T16:58:46.150Z,1.00
2022-10-18T17:01:17.546Z,1.00
2022-10-18T17:03:44.617Z,1.00
2022-10-18T17:06:21.496Z,1.00
2022-10-18T17:08:48.441Z,1.00
2022-10-18T17:11:15.971Z,1.00
2022-10-18T17:13:43.314Z,1.00
2022-10-18T17:18:57.071Z,1.00
2022-10-18T17:21:24.491Z,1.00
2022-10-18T17:24:06.167Z,1.00
2022-10-18T17:26:35.817Z,1.00
2022-10-18T17:29:06.350Z,1.00
2022-10-18T17:31:33.875Z,1.00
2022-10-18T17:34:02.366Z,1.00
2022-10-18T17:36:30.411Z,1.00
2022-10-18T17:38:57.385Z,1.00
2022-10-18T17:41:24.749Z,1.00
2022-10-18T17:43:51.643Z,1.00
2022-10-18T17:46:19.489Z,1.00
2022-10-18T17:48:46.558Z,1.00
2022-10-18T17:51:47.671Z,1.00
2022-10-18T18:03:17.732Z,1.00
2022-10-18T18:05:44.693Z,1.00
2022-10-18T18:08:11.417Z,1.00
2022-10-18T18:10:38.266Z,1.00
2022-10-18T18:13:05.028Z,1.00
